Airfield :
LOGIN :

Register | Disclaimer

   EN    FR    IT 

 










Legend :    VFR   Marginal VFR   IFR   Intensive IFR   Very Intensive IFR
Visi :
Ceiling :
>= 8 km
>= 3000ft
5 to 8 km
1000 to 3000 ft
1500m to 5 km
500 to 1000 ft
800 to 1500m
200 to 500 ft
< 800m
< 200 ft
Symbols :   Thunderstorms  Fog  Heavy snow  Heavy precipitations  Wind > 20 kt
SIGMETs :     Misc.  Thunderstorms  Icing  Turbulence  Mountain Waves  Volcanic Ashes







- Airport Elevation : 26 ft
- IATA code : GLA
- Download approach charts


EGPF - Glasgow

CURRENT METAR :
  • 171950Z AUTO 19006KT 160V240 8000 -RA BKN008/// OVC016/// //////CB 16/15 Q1004

EXPIRED METARs :
  • 171920Z AUTO 18008KT 9000 BKN010/// OVC016/// //////CB 16/15 Q1004
  • 171850Z AUTO 18010KT 9999 BKN011 OVC017 16/15 Q1004
  • 171820Z AUTO 19012KT 7000 BKN012 16/14 Q1005
  • 171750Z AUTO 18011KT 160V230 9999 BKN012/// OVC019/// //////CB 16/14 Q1005
  • 171720Z AUTO 18007KT 140V210 9999 -RA BKN011/// OVC028/// //////CB 16/14 Q1006

TAF TAF EGPF
Valid from the 17 at 18:00 until the 18 at 18:00 UTC


171704Z 1718/1818 19009KT 9999 FEW005 SCT010
TEMPO 1718/1722 6000 RA BKN010
PROB40
TEMPO 1718/1722 4000 +RA BKN007
PROB30
TEMPO 1801/1809 8000 -SHRA BKN012
TEMPO 1809/1818 7000 SHRA
ATIS : +44 141 887 7449
No reported NOTAMs for that airfield.



MET'MAP, your aeronautical weather chart ! - Copyright ORBIFLY December 2007 - Disclaimer

ORBIFLY MET'MAP TEAM :

Programming & Development : Alexandra Zaïnal
Concept & Development : Baudouin d'Aumeries
Co-Development & Prog : Marc-Olivier Méhu
Technical & hardware support : Manuel Goepfert

Contact : metmap@orbifly.com




SOURCES & CREDITS :

   NOAA